createdAt,value
2023-01-09T00:00:57.976Z,5.00
2023-01-09T00:03:24.942Z,5.00
2023-01-09T00:05:52.015Z,5.00
2023-01-09T00:08:19.398Z,5.00
2023-01-09T00:10:46.264Z,5.00
2023-01-09T00:13:14.192Z,5.00
2023-01-09T00:15:41.752Z,5.00
2023-01-09T00:18:08.661Z,5.00
2023-01-09T00:20:36.617Z,5.00
2023-01-09T00:23:03.748Z,5.00
2023-01-09T00:25:30.592Z,5.00
2023-01-09T00:27:57.384Z,5.00
2023-01-09T00:30:24.445Z,5.00
2023-01-09T00:32:51.387Z,5.00
2023-01-09T00:35:18.828Z,5.00
2023-01-09T00:37:45.784Z,5.00
2023-01-09T00:40:15.356Z,5.00
2023-01-09T00:42:48.214Z,5.00
2023-01-09T00:45:20.183Z,5.00
2023-01-09T00:47:51.498Z,5.00
2023-01-09T00:50:22.708Z,5.00
2023-01-09T00:52:51.538Z,5.00
2023-01-09T00:55:18.668Z,5.00
2023-01-09T00:57:45.651Z,5.10
2023-01-09T01:00:13.020Z,5.00
2023-01-09T01:02:40.181Z,5.00
2023-01-09T01:05:26.261Z,5.00
2023-01-09T01:07:53.112Z,5.00
2023-01-09T01:10:23.106Z,5.00
2023-01-09T01:12:50.524Z,5.00
2023-01-09T01:15:18.047Z,5.00
2023-01-09T01:17:45.312Z,5.00
2023-01-09T01:20:17.470Z,5.00
2023-01-09T01:22:44.816Z,5.00
2023-01-09T01:25:13.643Z,5.00
2023-01-09T01:27:41.184Z,5.00
2023-01-09T01:30:09.871Z,5.00
2023-01-09T01:32:37.053Z,5.00
2023-01-09T01:35:04.648Z,5.00
2023-01-09T01:37:31.702Z,5.00
2023-01-09T01:39:58.461Z,5.00
2023-01-09T01:42:25.550Z,5.00
2023-01-09T01:44:58.795Z,5.00
2023-01-09T01:47:32.950Z,5.00
2023-01-09T01:50:03.439Z,5.00
2023-01-09T01:52:32.422Z,5.00
2023-01-09T01:54:59.583Z,5.10
2023-01-09T01:57:26.513Z,5.00
2023-01-09T01:59:57.793Z,5.10
2023-01-09T02:02:29.988Z,5.10
2023-01-09T02:04:58.695Z,5.10
2023-01-09T02:07:25.753Z,5.10
2023-01-09T02:09:53.909Z,5.10
2023-01-09T02:12:26.574Z,5.10
2023-01-09T02:15:03.972Z,5.10
2023-01-09T02:17:49.402Z,5.10
2023-01-09T02:20:43.465Z,5.10
2023-01-09T02:23:47.769Z,5.10
2023-01-09T02:26:54.653Z,5.10
2023-01-09T02:29:44.379Z,5.10
2023-01-09T02:32:29.121Z,5.10
2023-01-09T02:35:38.295Z,5.00
2023-01-09T02:38:24.313Z,5.10
2023-01-09T02:41:01.267Z,5.10
2023-01-09T02:43:28.858Z,5.10
2023-01-09T02:45:55.653Z,5.10
2023-01-09T02:48:22.518Z,5.00
2023-01-09T02:51:19.819Z,5.00
2023-01-09T02:54:21.519Z,5.10
2023-01-09T02:57:06.665Z,5.10
2023-01-09T02:59:55.264Z,5.10
2023-01-09T03:02:46.588Z,5.10
2023-01-09T03:05:22.916Z,5.10
2023-01-09T03:07:59.539Z,5.10
2023-01-09T03:10:51.722Z,5.10
2023-01-09T03:13:22.384Z,5.10
2023-01-09T03:15:52.335Z,5.10
2023-01-09T03:18:23.230Z,5.10
2023-01-09T03:20:51.645Z,5.10
2023-01-09T03:23:18.596Z,5.10
2023-01-09T03:25:45.460Z,5.10
2023-01-09T03:28:32.802Z,5.10
2023-01-09T03:30:59.620Z,5.10
2023-01-09T03:33:26.463Z,5.10
2023-01-09T03:35:53.255Z,5.10
2023-01-09T03:38:20.070Z,5.10
2023-01-09T03:40:46.893Z,5.10
2023-01-09T03:43:13.683Z,5.10
2023-01-09T03:45:40.584Z,5.10
2023-01-09T03:48:07.413Z,5.20
2023-01-09T03:50:34.768Z,5.20
2023-01-09T03:53:01.953Z,5.20
2023-01-09T03:55:28.896Z,5.20
2023-01-09T03:57:55.733Z,5.10
2023-01-09T04:00:23.135Z,5.10
2023-01-09T04:02:49.941Z,5.20
2023-01-09T04:05:17.030Z,5.20
2023-01-09T04:07:44.010Z,5.20
2023-01-09T04:10:11.704Z,5.20
2023-01-09T04:12:38.610Z,5.20
2023-01-09T04:15:06.140Z,5.20
2023-01-09T04:17:32.952Z,5.20
2023-01-09T04:19:59.850Z,5.20
2023-01-09T04:22:26.705Z,5.20
2023-01-09T04:24:53.499Z,5.10
2023-01-09T04:27:20.357Z,5.20
2023-01-09T04:29:47.171Z,5.20
2023-01-09T04:32:14.100Z,5.20
2023-01-09T04:34:40.909Z,5.20
2023-01-09T04:37:07.762Z,5.20
2023-01-09T04:39:34.683Z,5.20
2023-01-09T04:42:01.612Z,5.20
2023-01-09T04:44:28.511Z,5.20
2023-01-09T04:46:58.898Z,5.20
2023-01-09T04:49:26.078Z,5.30
2023-01-09T04:51:53.240Z,5.20
2023-01-09T04:54:20.783Z,5.20
2023-01-09T04:56:48.019Z,5.30
2023-01-09T04:59:14.967Z,5.20
2023-01-09T05:01:41.955Z,5.20
2023-01-09T05:04:09.019Z,5.30
2023-01-09T05:06:35.907Z,5.20
2023-01-09T05:09:03.289Z,5.30
2023-01-09T05:11:30.188Z,5.30
2023-01-09T05:13:57.043Z,5.30
2023-01-09T05:16:23.899Z,5.30
2023-01-09T05:18:56.432Z,5.30
2023-01-09T05:21:27.149Z,5.30
2023-01-09T05:23:54.092Z,5.30
2023-01-09T05:26:24.611Z,5.30
2023-01-09T05:28:52.631Z,5.30
2023-01-09T05:31:20.290Z,5.30
2023-01-09T05:33:47.125Z,5.30
2023-01-09T05:36:14.281Z,5.30
2023-01-09T05:38:41.243Z,5.30
2023-01-09T05:41:08.111Z,5.30
2023-01-09T05:43:35.109Z,5.30
2023-01-09T05:46:02.025Z,5.30
2023-01-09T05:48:28.911Z,5.30
2023-01-09T05:50:55.738Z,5.30
2023-01-09T05:53:22.602Z,5.30
2023-01-09T05:55:49.404Z,5.30
2023-01-09T05:58:16.250Z,5.40
2023-01-09T06:00:43.017Z,5.40
2023-01-09T06:03:09.887Z,5.30
2023-01-09T06:05:36.783Z,5.30
2023-01-09T06:08:03.588Z,5.40
2023-01-09T06:10:30.417Z,5.40
2023-01-09T06:12:57.328Z,5.40
2023-01-09T06:15:24.163Z,5.40
2023-01-09T06:17:51.057Z,5.40
2023-01-09T06:20:18.011Z,5.30
2023-01-09T06:22:45.363Z,5.30
2023-01-09T06:25:13.415Z,5.30
2023-01-09T06:27:40.185Z,5.30
2023-01-09T06:30:07.785Z,5.30
2023-01-09T06:32:34.734Z,5.30
2023-01-09T06:35:01.535Z,5.30
2023-01-09T06:37:28.482Z,5.30
2023-01-09T06:39:55.317Z,5.30
2023-01-09T06:42:22.205Z,5.30
2023-01-09T06:44:49.188Z,5.30
2023-01-09T06:47:16.231Z,5.30
2023-01-09T06:49:43.060Z,5.30
2023-01-09T06:52:09.977Z,5.30
2023-01-09T06:54:36.822Z,5.30
2023-01-09T06:57:03.674Z,5.30
2023-01-09T06:59:30.489Z,5.30
2023-01-09T07:01:57.395Z,5.20
2023-01-09T07:04:24.476Z,5.20
2023-01-09T07:06:51.319Z,5.20
2023-01-09T07:09:18.170Z,5.20
2023-01-09T07:11:45.198Z,5.20
2023-01-09T07:14:12.038Z,5.20
2023-01-09T07:16:38.934Z,5.20
2023-01-09T07:19:05.736Z,5.20
2023-01-09T07:21:32.948Z,5.20
2023-01-09T07:24:00.089Z,5.20
2023-01-09T07:26:26.947Z,5.20
2023-01-09T07:28:54.622Z,5.20
2023-01-09T07:31:21.599Z,5.20
2023-01-09T07:33:48.464Z,5.20
2023-01-09T07:36:15.286Z,5.20
2023-01-09T07:38:42.205Z,5.20
2023-01-09T07:41:09.240Z,5.20
2023-01-09T07:43:37.732Z,5.20
2023-01-09T07:46:05.128Z,5.20
2023-01-09T07:48:32.019Z,5.20
2023-01-09T07:50:59.216Z,5.20
2023-01-09T07:53:26.027Z,5.20
2023-01-09T07:55:52.858Z,5.10
2023-01-09T07:58:19.629Z,5.10
2023-01-09T08:00:46.468Z,5.10
2023-01-09T08:03:13.286Z,5.10
2023-01-09T08:05:40.094Z,5.10
2023-01-09T08:08:07.243Z,5.10
2023-01-09T08:10:34.031Z,5.10
2023-01-09T08:13:00.849Z,5.10
2023-01-09T08:15:27.638Z,5.10
2023-01-09T08:17:54.490Z,5.10
2023-01-09T08:20:21.360Z,5.10
2023-01-09T08:22:53.544Z,5.10
2023-01-09T08:25:20.802Z,5.10
2023-01-09T08:27:47.690Z,5.10
2023-01-09T08:30:15.218Z,5.10
2023-01-09T08:32:42.208Z,5.10
2023-01-09T08:35:09.695Z,5.10
2023-01-09T08:37:36.522Z,5.10
2023-01-09T08:40:03.507Z,5.10
2023-01-09T08:42:49.018Z,5.10
2023-01-09T08:45:34.681Z,5.10
2023-01-09T08:48:01.633Z,5.10
2023-01-09T08:50:28.440Z,5.10
2023-01-09T08:52:55.392Z,5.10
2023-01-09T08:55:22.221Z,5.10
2023-01-09T08:57:53.121Z,5.10
2023-01-09T09:00:22.253Z,5.20
2023-01-09T09:02:53.938Z,5.20
2023-01-09T09:05:21.848Z,5.20
2023-01-09T09:07:55.872Z,5.20
2023-01-09T09:10:25.021Z,5.20
2023-01-09T09:12:54.810Z,5.20
2023-01-09T09:15:25.445Z,5.30
2023-01-09T09:17:54.607Z,5.30
2023-01-09T09:20:23.521Z,5.30
2023-01-09T09:22:50.621Z,5.30
2023-01-09T09:25:18.319Z,5.30
2023-01-09T09:27:45.271Z,5.30
2023-01-09T09:30:14.089Z,5.30
2023-01-09T09:32:41.519Z,5.30
2023-01-09T09:35:08.857Z,5.30
2023-01-09T09:37:36.451Z,5.30
2023-01-09T09:40:17.565Z,5.30
2023-01-09T09:43:28.923Z,5.30
2023-01-09T09:46:20.614Z,5.30
2023-01-09T09:49:07.139Z,5.30
2023-01-09T09:51:56.896Z,5.30
2023-01-09T09:54:35.340Z,5.30
2023-01-09T09:57:04.355Z,5.30
2023-01-09T09:59:37.108Z,5.30
2023-01-09T10:02:09.915Z,5.30
2023-01-09T10:04:42.749Z,5.30
2023-01-09T10:07:28.502Z,5.40
2023-01-09T10:10:00.627Z,5.40
2023-01-09T10:12:57.969Z,5.40
2023-01-09T10:15:46.268Z,5.40
2023-01-09T10:18:34.497Z,5.40
2023-01-09T10:21:11.944Z,5.30
2023-01-09T10:23:53.645Z,5.30
2023-01-09T10:26:37.809Z,5.30
2023-01-09T10:29:22.493Z,5.30
2023-01-09T10:32:10.172Z,5.30
2023-01-09T10:35:01.685Z,5.30
2023-01-09T10:37:37.322Z,5.20
2023-01-09T10:40:24.559Z,5.20
2023-01-09T10:43:06.010Z,5.20
2023-01-09T10:45:52.724Z,5.20
2023-01-09T10:48:37.483Z,5.10
2023-01-09T10:51:21.341Z,5.10
2023-01-09T10:53:53.987Z,5.10
2023-01-09T10:56:30.736Z,5.10
2023-01-09T10:58:57.938Z,5.10
2023-01-09T11:01:38.235Z,5.10
2023-01-09T11:04:34.019Z,5.10
2023-01-09T11:07:07.460Z,5.10
2023-01-09T11:10:00.221Z,5.10
2023-01-09T11:12:33.134Z,5.20
2023-01-09T11:15:21.013Z,5.20
2023-01-09T11:17:50.331Z,5.10
2023-01-09T11:20:26.974Z,5.10
2023-01-09T11:22:56.037Z,5.10
2023-01-09T11:25:27.973Z,5.10
2023-01-09T11:28:06.666Z,5.10
2023-01-09T11:30:37.469Z,5.00
2023-01-09T11:33:17.902Z,5.00
2023-01-09T11:36:06.499Z,5.00
2023-01-09T11:38:52.212Z,5.00
2023-01-09T11:41:25.841Z,5.00
2023-01-09T11:43:55.713Z,5.00
2023-01-09T11:46:37.622Z,5.00
2023-01-09T11:49:26.171Z,5.00
2023-01-09T11:52:11.805Z,4.90
2023-01-09T11:54:44.670Z,4.90
2023-01-09T11:57:12.881Z,4.90
2023-01-09T11:59:39.800Z,4.90
2023-01-09T12:02:37.045Z,4.90
2023-01-09T12:05:27.624Z,4.80
2023-01-09T12:07:54.321Z,4.80
2023-01-09T12:11:16.720Z,4.80
2023-01-09T12:14:04.605Z,4.80
2023-01-09T12:16:34.323Z,4.80
2023-01-09T12:19:26.623Z,4.80
2023-01-09T12:22:21.063Z,4.80
2023-01-09T12:25:15.626Z,4.80
2023-01-09T12:28:14.434Z,4.80
2023-01-09T12:31:03.111Z,4.80
2023-01-09T12:33:53.328Z,4.80
2023-01-09T12:36:31.521Z,4.80
2023-01-09T12:39:23.273Z,4.70
2023-01-09T12:42:01.744Z,4.70
2023-01-09T12:44:46.982Z,4.70
2023-01-09T12:47:19.629Z,4.70
2023-01-09T12:49:49.651Z,4.60
2023-01-09T12:52:20.531Z,4.60
2023-01-09T12:54:53.982Z,4.60
2023-01-09T12:57:43.737Z,4.60
2023-01-09T13:00:20.844Z,4.50
2023-01-09T13:03:12.801Z,4.50
2023-01-09T13:05:50.786Z,4.50
2023-01-09T13:08:25.647Z,4.50
2023-01-09T13:10:57.593Z,4.50
2023-01-09T13:13:47.599Z,4.50
2023-01-09T13:16:27.067Z,4.40
2023-01-09T13:19:03.539Z,4.40
2023-01-09T13:21:31.042Z,4.40
2023-01-09T13:24:05.436Z,4.40
2023-01-09T13:26:55.458Z,4.40
2023-01-09T13:29:42.404Z,4.40
2023-01-09T13:32:12.106Z,4.40
2023-01-09T13:34:39.828Z,4.30
2023-01-09T13:37:30.193Z,4.30
2023-01-09T13:40:02.739Z,4.30
2023-01-09T13:42:47.879Z,4.30
2023-01-09T13:45:17.519Z,4.30
2023-01-09T13:47:45.148Z,4.30
2023-01-09T13:50:11.999Z,4.20
2023-01-09T13:52:42.671Z,4.20
2023-01-09T13:55:12.367Z,4.20
2023-01-09T13:57:43.769Z,4.20
2023-01-09T14:00:13.438Z,4.20
2023-01-09T14:02:49.902Z,4.20
2023-01-09T14:05:25.663Z,4.20
2023-01-09T14:08:07.230Z,4.20
2023-01-09T14:10:38.313Z,4.20
2023-01-09T14:13:18.545Z,4.20
2023-01-09T14:15:47.111Z,4.20
2023-01-09T14:18:32.723Z,4.20
2023-01-09T14:24:02.725Z,4.10
2023-01-09T14:26:46.445Z,4.10
2023-01-09T14:29:31.485Z,4.10
2023-01-09T14:32:23.286Z,4.10
2023-01-09T14:35:05.562Z,4.10
2023-01-09T14:37:37.124Z,4.10
2023-01-09T14:40:15.822Z,4.10
2023-01-09T14:42:46.069Z,4.10
2023-01-09T14:45:19.432Z,4.00
2023-01-09T14:47:55.096Z,4.00
2023-01-09T14:50:46.408Z,4.00
2023-01-09T14:53:16.628Z,4.00
2023-01-09T14:55:53.480Z,4.00
2023-01-09T14:58:37.182Z,4.10
2023-01-09T15:01:07.018Z,4.00
2023-01-09T15:03:38.462Z,4.00
2023-01-09T15:06:06.350Z,4.00
2023-01-09T15:08:33.693Z,4.00
2023-01-09T15:11:00.785Z,4.00
2023-01-09T15:13:35.553Z,4.00
2023-01-09T15:16:05.774Z,4.00
2023-01-09T15:18:40.543Z,4.00
2023-01-09T15:21:07.456Z,4.00
2023-01-09T15:23:34.332Z,4.00
2023-01-09T15:26:25.862Z,3.90
2023-01-09T15:29:00.684Z,3.90
2023-01-09T15:31:28.645Z,3.90
2023-01-09T15:33:56.586Z,3.90
2023-01-09T15:36:26.307Z,3.90
2023-01-09T15:38:54.233Z,3.90
2023-01-09T15:41:48.304Z,3.80
2023-01-09T15:44:24.115Z,3.90
2023-01-09T15:46:51.838Z,3.90
2023-01-09T15:49:20.004Z,3.80
2023-01-09T15:51:47.326Z,3.80
2023-01-09T15:54:16.292Z,3.80
2023-01-09T15:56:45.710Z,3.80
2023-01-09T15:59:28.064Z,3.80
2023-01-09T16:02:20.435Z,3.80
2023-01-09T16:04:48.757Z,3.80
2023-01-09T16:07:18.738Z,3.80
2023-01-09T16:09:52.637Z,3.80
2023-01-09T16:12:26.053Z,3.80
2023-01-09T16:14:55.835Z,3.80
2023-01-09T16:17:31.276Z,3.80
2023-01-09T16:20:12.268Z,3.80
2023-01-09T16:22:53.949Z,3.80
2023-01-09T16:25:32.174Z,3.80
2023-01-09T16:28:15.221Z,3.80
2023-01-09T16:30:54.668Z,3.80
2023-01-09T16:33:24.012Z,3.80
2023-01-09T16:35:51.646Z,3.80
2023-01-09T16:38:19.713Z,3.80
2023-01-09T16:41:18.763Z,3.70
2023-01-09T16:43:46.213Z,3.70
2023-01-09T16:46:15.150Z,3.70
2023-01-09T16:48:42.402Z,3.70
2023-01-09T16:51:18.735Z,3.80
2023-01-09T16:53:45.685Z,3.80
2023-01-09T16:56:20.021Z,3.80
2023-01-09T16:58:46.926Z,3.80
2023-01-09T17:01:14.954Z,3.70
2023-01-09T17:03:44.060Z,3.70
2023-01-09T17:06:21.429Z,3.70
2023-01-09T17:08:48.326Z,3.70
2023-01-09T17:11:20.547Z,3.70
2023-01-09T17:13:48.192Z,3.70
2023-01-09T17:16:17.020Z,3.70
2023-01-09T17:18:44.450Z,3.70
2023-01-09T17:21:23.215Z,3.70
2023-01-09T17:24:13.180Z,3.70
2023-01-09T17:27:01.580Z,3.70
2023-01-09T17:29:30.127Z,3.70
2023-01-09T17:31:58.030Z,3.70
2023-01-09T17:34:24.965Z,3.70
2023-01-09T17:36:52.838Z,3.70
2023-01-09T17:39:19.680Z,3.70
2023-01-09T17:41:46.503Z,3.70
2023-01-09T17:44:13.412Z,3.70
2023-01-09T17:46:43.214Z,3.70
2023-01-09T17:49:19.968Z,3.70
2023-01-09T17:51:46.806Z,3.70
2023-01-09T17:54:14.401Z,3.70
2023-01-09T17:56:45.221Z,3.70
2023-01-09T17:59:13.774Z,3.70
2023-01-09T18:01:41.795Z,3.70
2023-01-09T18:04:08.935Z,3.70
2023-01-09T18:06:36.707Z,3.70
2023-01-09T18:09:04.939Z,3.70
2023-01-09T18:11:31.883Z,3.70
2023-01-09T18:13:58.830Z,3.70
2023-01-09T18:16:28.004Z,3.70
2023-01-09T18:18:58.044Z,3.60
2023-01-09T18:21:26.844Z,3.60
2023-01-09T18:23:53.789Z,3.60
2023-01-09T18:26:21.834Z,3.60
2023-01-09T18:28:57.590Z,3.60
2023-01-09T18:31:27.271Z,3.60
2023-01-09T18:33:56.576Z,3.60
2023-01-09T18:36:30.721Z,3.60
2023-01-09T18:38:59.964Z,3.60
2023-01-09T18:41:27.423Z,3.60
2023-01-09T18:43:56.524Z,3.60
2023-01-09T18:46:24.490Z,3.60
2023-01-09T18:48:55.811Z,3.50
2023-01-09T18:51:23.926Z,3.60
2023-01-09T18:53:51.376Z,3.60
2023-01-09T18:56:20.090Z,3.60
2023-01-09T18:58:47.924Z,3.60
2023-01-09T19:01:15.342Z,3.50
2023-01-09T19:03:42.751Z,3.60
2023-01-09T19:06:10.096Z,3.50
2023-01-09T19:08:36.927Z,3.60
2023-01-09T19:11:04.555Z,3.50
2023-01-09T19:13:36.559Z,3.50
2023-01-09T19:16:05.592Z,3.50
2023-01-09T19:18:35.034Z,3.50
2023-01-09T19:21:02.359Z,3.50
2023-01-09T19:23:29.205Z,3.50
2023-01-09T19:25:57.699Z,3.50
2023-01-09T19:28:24.621Z,3.50
2023-01-09T19:30:56.488Z,3.50
2023-01-09T19:33:25.229Z,3.50
2023-01-09T19:35:53.023Z,3.50
2023-01-09T19:38:23.137Z,3.50
2023-01-09T19:40:50.418Z,3.50
2023-01-09T19:43:25.817Z,3.50
2023-01-09T19:45:54.426Z,3.50
2023-01-09T19:48:22.756Z,3.50
2023-01-09T19:50:49.617Z,3.50
2023-01-09T19:53:16.456Z,3.50
2023-01-09T19:55:43.285Z,3.50
2023-01-09T19:58:10.287Z,3.50
2023-01-09T20:00:37.196Z,3.40
2023-01-09T20:03:04.448Z,3.40
2023-01-09T20:05:32.311Z,3.40
2023-01-09T20:07:59.214Z,3.40
2023-01-09T20:10:26.068Z,3.40
2023-01-09T20:12:53.258Z,3.40
2023-01-09T20:15:20.055Z,3.40
2023-01-09T20:17:46.846Z,3.40
2023-01-09T20:20:13.688Z,3.40
2023-01-09T20:22:40.611Z,3.40
2023-01-09T20:25:10.284Z,3.40
2023-01-09T20:27:37.269Z,3.40
2023-01-09T20:30:04.668Z,3.40
2023-01-09T20:32:32.412Z,3.40
2023-01-09T20:34:59.337Z,3.40
2023-01-09T20:37:26.255Z,3.40
2023-01-09T20:39:53.232Z,3.40
2023-01-09T20:42:20.134Z,3.40
2023-01-09T20:44:47.417Z,3.40
2023-01-09T20:47:14.244Z,3.40
2023-01-09T20:49:41.075Z,3.40
2023-01-09T20:52:07.914Z,3.40
2023-01-09T20:54:35.931Z,3.40
2023-01-09T20:57:02.875Z,3.40
2023-01-09T20:59:29.675Z,3.40
2023-01-09T21:01:56.522Z,3.40
2023-01-09T21:04:23.374Z,3.40
2023-01-09T21:06:50.626Z,3.40
2023-01-09T21:09:18.370Z,3.40
2023-01-09T21:11:45.424Z,3.40
2023-01-09T21:14:12.252Z,3.40
2023-01-09T21:16:40.244Z,3.40
2023-01-09T21:19:07.419Z,3.40
2023-01-09T21:21:34.267Z,3.40
2023-01-09T21:24:01.218Z,3.40
2023-01-09T21:26:30.739Z,3.40
2023-01-09T21:28:59.907Z,3.40
2023-01-09T21:31:35.372Z,3.40
2023-01-09T21:34:05.207Z,3.40
2023-01-09T21:36:32.577Z,3.40
2023-01-09T21:39:00.035Z,3.40
2023-01-09T21:41:46.360Z,3.40
2023-01-09T21:44:32.150Z,3.40
2023-01-09T21:47:00.860Z,3.40
2023-01-09T21:49:31.203Z,3.40
2023-01-09T21:51:58.140Z,3.30
2023-01-09T21:54:25.354Z,3.30
2023-01-09T21:56:53.120Z,3.30
2023-01-09T21:59:20.238Z,3.30
2023-01-09T22:01:49.093Z,3.30
2023-01-09T22:04:23.563Z,3.30
2023-01-09T22:06:50.547Z,3.30
2023-01-09T22:09:17.404Z,3.30
2023-01-09T22:11:44.567Z,3.30
2023-01-09T22:14:14.541Z,3.30
2023-01-09T22:16:45.965Z,3.30
2023-01-09T22:19:14.665Z,3.30
2023-01-09T22:21:41.945Z,3.30
2023-01-09T22:24:12.807Z,3.30
2023-01-09T22:26:39.783Z,3.30
2023-01-09T22:29:06.624Z,3.30
2023-01-09T22:31:34.814Z,3.30
2023-01-09T22:34:02.656Z,3.30
2023-01-09T22:36:31.026Z,3.30
2023-01-09T22:38:59.320Z,3.20
2023-01-09T22:41:29.685Z,3.30
2023-01-09T22:43:56.735Z,3.30
2023-01-09T22:46:23.774Z,3.20
2023-01-09T22:48:50.675Z,3.20
2023-01-09T22:51:20.032Z,3.30
2023-01-09T22:53:47.124Z,3.30
2023-01-09T22:56:16.232Z,3.30
2023-01-09T22:58:43.793Z,3.20
2023-01-09T23:01:13.704Z,3.20
2023-01-09T23:03:40.975Z,3.20
2023-01-09T23:06:11.514Z,3.20
2023-01-09T23:08:39.020Z,3.20
2023-01-09T23:11:08.988Z,3.30
2023-01-09T23:13:35.873Z,3.30
2023-01-09T23:16:02.744Z,3.30
2023-01-09T23:18:29.543Z,3.30
2023-01-09T23:20:58.971Z,3.30
2023-01-09T23:23:27.534Z,3.30
2023-01-09T23:25:57.177Z,3.30
2023-01-09T23:28:25.084Z,3.30
2023-01-09T23:30:52.324Z,3.30
2023-01-09T23:33:21.142Z,3.30
2023-01-09T23:35:48.382Z,3.30
2023-01-09T23:38:15.525Z,3.30
2023-01-09T23:40:42.710Z,3.30
2023-01-09T23:43:11.308Z,3.30
2023-01-09T23:45:39.088Z,3.30
2023-01-09T23:48:07.496Z,3.30
2023-01-09T23:50:34.987Z,3.30
2023-01-09T23:53:02.348Z,3.30
2023-01-09T23:55:29.355Z,3.30
2023-01-09T23:57:56.233Z,3.30
